Terminal Aerodrome Forecast
Issued by NWS

Home | Current Version | Previous Version | Text Only | Print | Product List | Glossary On
Versions: 1 2 3 4 5 6 7 8 9 10 11 12
000
FTUS42 KMLB 252335
TAFISM
TAF
KISM 252335Z 2600/2624 15005KT P6SM FEW040 BKN120 OVC250
     FM261400 12010KT P6SM SCT025 SCT100 OVC250
     FM261700 12012KT P6SM -RA VCSH FEW025 BKN080 OVC150
      TEMPO 2618/2622 3SM SHRA BKN025=

USA.gov is the U.S. government's official web portal to all federal, state and local government web resources and services.